Odi Airport

Jump to: basic info | weather | comments

Related pages: nearby airports | nearby navaids | notams | map

Basic information (top)

Codes: FAIO
Location: lon -25.549999, lat 27.933001, elev 3,862 ft / 1,177 m msl
Status: small_airport

Weather (top)

Current conditions for Wonderboom Airport 17nm (31km) ESE (rec'd 2014/07/28 14:00Z):

FAWB 281400Z 33005KT CAVOK 22/02 Q1028

Airport forecast for Wonderboom Airport 17nm (31km) ESE (rec'd 2014/07/14 04:00Z):

TAF FAWB 140300Z 1404/1415 VRB02KT CAVOK 
      BECMG 1406/1408 16007KT 
      BECMG 1409/1411 36007KT TX20/1412ZTN02/1404Z

Latest comments (top)

Runway Details: Runways: 10 & 29 Runway Length = ... [read]

More... (top)

See also NOTAMs and nearby airports and navaids, or visit the Odi Airport page at the main OurAirports website..